Terminal Aerodrome Forecast
Issued by NWS Kansas City/Pleasant Hill, MO

Home | Current Version | Previous Version | Text Only | Print | Product List | Glossary On
Versions: 1 2 3 4 5 6 7 8 9 10 11 12 13
000
FTUS43 KEAX 060500
TAFMCI
TAF
KMCI 060520Z 0606/0706 18012KT P6SM BKN250
     FM061700 20014G22KT P6SM SCT050
     FM062300 20014G22KT P6SM VCTS SCT025CB OVC030
      TEMPO 0623/0702 2SM TSRA OVC015CB
     FM070400 35015KT P6SM SCT015 OVC025=

USA.gov is the U.S. government's official web portal to all federal, state and local government web resources and services.